Pilot Vessel Akarana — ZMT2938 — position and weather

sailwx.info

Track history (hours):
 
Tides and Currents Weather Stations Pressure Air Temp Water Temp Dewpoint Dewpoint Depression Visibility Wind Speed Wind Dir Waves Ship Positions

Pilot Vessel Akarana

Last reported at 2018-Feb-15 16:31 UTC. Time now 2018-Feb-19 06:25 UTC.
Position S 36°51' E 174°47'.

Length 15 m; draft 1.6 m.

Type: Pilot. MMSI: 512000344.

Date/timePositionNaut miles runAvg speedWind from/ knotsBaromVisibWave heightAir tempDewpointWater temp
2018-Feb-15 16:31S 36°51' E 174°47'0 0.3
2018-Feb-15 16:30S 36°51' E 174°47'5 2.1
2018-Feb-15 13:59S 36°46' E 174°49'1 1.0
2018-Feb-15 13:28S 36°46' E 174°49'1 0.0
2018-Feb-13 10:12S 36°45' E 174°50'0 0.0
2018-Feb-11 06:18S 36°46' E 174°49'3 4.2
2018-Feb-11 05:36S 36°43' E 174°51'1 0.1
2018-Feb-10 11:14S 36°44' E 174°50'2 1.6
2018-Feb-10 10:15S 36°46' E 174°49'  
Track history (hours):
 
Tides and Currents Weather Stations Pressure Air Temp Water Temp Dewpoint Dewpoint Depression Visibility Wind Speed Wind Dir Waves Ship Positions

Pilot Vessel Akarana

Last reported at 2018-Feb-15 16:31 UTC. Time now 2018-Feb-19 06:25 UTC.
Position S 36°51' E 174°47'.

Length 15 m; draft 1.6 m.

Type: Pilot. MMSI: 512000344.

Date/timePositionNaut miles runAvg speedWind from/ knotsBaromVisibWave heightAir tempDewpointWater temp
2018-Feb-15 16:31S 36°51' E 174°47'0 0.3
2018-Feb-15 16:30S 36°51' E 174°47'5 2.1
2018-Feb-15 13:59S 36°46' E 174°49'1 1.0
2018-Feb-15 13:28S 36°46' E 174°49'1 0.0
2018-Feb-13 10:12S 36°45' E 174°50'0 0.0
2018-Feb-11 06:18S 36°46' E 174°49'3 4.2
2018-Feb-11 05:36S 36°43' E 174°51'1 0.1
2018-Feb-10 11:14S 36°44' E 174°50'2 1.6
2018-Feb-10 10:15S 36°46' E 174°49'  

Dump ship's entire track history